createdAt,value
2022-10-02T00:00:25.029Z,99.90
2022-10-02T00:02:35.783Z,99.90
2022-10-02T00:04:50.613Z,99.90
2022-10-02T00:07:02.857Z,99.90
2022-10-02T00:09:15.568Z,99.90
2022-10-02T00:11:26.285Z,99.90
2022-10-02T00:13:40.478Z,99.90
2022-10-02T00:15:47.967Z,99.90
2022-10-02T00:17:58.343Z,99.90
2022-10-02T00:20:15.951Z,99.90
2022-10-02T00:22:35.521Z,99.90
2022-10-02T00:24:46.596Z,99.90
2022-10-02T00:27:01.213Z,99.90
2022-10-02T00:29:21.335Z,99.90
2022-10-02T00:31:40.825Z,99.90
2022-10-02T00:34:00.233Z,99.90
2022-10-02T00:36:21.442Z,99.90
2022-10-02T00:38:44.744Z,99.90
2022-10-02T00:41:17.679Z,99.90
2022-10-02T00:43:34.129Z,99.90
2022-10-02T00:46:06.300Z,99.90
2022-10-02T00:48:36.159Z,99.90
2022-10-02T00:50:52.198Z,99.90
2022-10-02T00:53:12.080Z,99.90
2022-10-02T00:55:43.435Z,99.90
2022-10-02T00:58:10.217Z,99.90
2022-10-02T01:00:20.267Z,99.90
2022-10-02T01:02:47.415Z,99.90
2022-10-02T01:04:54.392Z,99.90
2022-10-02T01:07:01.830Z,99.90
2022-10-02T01:09:10.650Z,99.90
2022-10-02T01:11:17.429Z,99.90
2022-10-02T01:13:24.844Z,99.90
2022-10-02T01:15:35.113Z,99.90
2022-10-02T01:17:42.047Z,99.90
2022-10-02T01:19:48.917Z,99.90
2022-10-02T01:22:02.448Z,99.90
2022-10-02T01:24:17.408Z,99.90
2022-10-02T01:26:26.084Z,99.90
2022-10-02T01:28:33.871Z,99.90
2022-10-02T01:30:44.125Z,99.90
2022-10-02T01:32:55.043Z,99.90
2022-10-02T01:35:02.941Z,99.90
2022-10-02T01:37:10.277Z,99.90
2022-10-02T01:39:17.715Z,99.90
2022-10-02T01:41:26.544Z,99.90
2022-10-02T01:43:36.071Z,99.90
2022-10-02T01:46:10.746Z,99.90
2022-10-02T01:48:24.943Z,99.90
2022-10-02T01:50:36.120Z,99.90
2022-10-02T01:52:52.824Z,99.90
2022-10-02T01:55:13.222Z,99.90
2022-10-02T01:57:35.816Z,99.90
2022-10-02T01:59:54.202Z,99.90
2022-10-02T02:02:14.249Z,99.90
2022-10-02T02:04:26.998Z,99.90
2022-10-02T02:06:41.303Z,99.90
2022-10-02T02:09:01.733Z,99.90
2022-10-02T02:11:15.575Z,99.90
2022-10-02T02:13:29.363Z,99.90
2022-10-02T02:15:43.974Z,99.90
2022-10-02T02:17:55.502Z,99.90
2022-10-02T02:20:05.809Z,99.90
2022-10-02T02:22:19.234Z,99.90
2022-10-02T02:24:29.694Z,99.90
2022-10-02T02:26:38.566Z,99.90
2022-10-02T02:28:52.001Z,99.90
2022-10-02T02:31:00.607Z,99.90
2022-10-02T02:33:12.141Z,99.90
2022-10-02T02:35:21.525Z,99.90
2022-10-02T02:37:30.997Z,99.90
2022-10-02T02:39:46.998Z,99.90
2022-10-02T02:41:58.532Z,99.90
2022-10-02T02:44:10.177Z,99.90
2022-10-02T02:46:18.987Z,99.90
2022-10-02T02:48:29.038Z,99.90
2022-10-02T02:50:39.809Z,99.90
2022-10-02T02:52:52.513Z,99.90
2022-10-02T02:55:06.505Z,99.90
2022-10-02T02:57:16.092Z,99.90
2022-10-02T02:59:28.907Z,99.90
2022-10-02T03:01:36.036Z,99.90
2022-10-02T03:03:43.425Z,99.90
2022-10-02T03:05:56.493Z,99.90
2022-10-02T03:08:07.054Z,99.90
2022-10-02T03:10:19.970Z,99.90
2022-10-02T03:12:39.132Z,99.90
2022-10-02T03:15:00.548Z,99.90
2022-10-02T03:17:19.044Z,99.90
2022-10-02T03:19:39.903Z,99.90
2022-10-02T03:21:57.369Z,99.90
2022-10-02T03:24:11.872Z,99.90
2022-10-02T03:26:22.537Z,99.90
2022-10-02T03:28:55.082Z,99.90
2022-10-02T03:31:04.391Z,99.90
2022-10-02T03:33:14.032Z,99.90
2022-10-02T03:35:21.928Z,99.90
2022-10-02T03:37:30.739Z,99.90
2022-10-02T03:39:37.731Z,99.90
2022-10-02T03:41:44.654Z,99.90
2022-10-02T03:43:51.734Z,99.90
2022-10-02T03:45:58.807Z,99.90
2022-10-02T03:48:08.026Z,98.20
2022-10-02T03:50:16.862Z,96.40
2022-10-02T03:52:25.922Z,96.30
2022-10-02T03:54:38.348Z,97.00
2022-10-02T03:56:54.645Z,95.80
2022-10-02T03:59:05.610Z,94.60
2022-10-02T04:01:20.142Z,96.40
2022-10-02T04:03:32.169Z,93.50
2022-10-02T04:05:44.971Z,94.30
2022-10-02T04:07:55.108Z,93.60
2022-10-02T04:10:18.031Z,94.10
2022-10-02T04:12:30.179Z,93.10
2022-10-02T04:14:41.350Z,92.70
2022-10-02T04:16:54.063Z,92.70
2022-10-02T04:19:07.177Z,93.30
2022-10-02T04:21:18.667Z,93.80
2022-10-02T04:23:26.759Z,94.70
2022-10-02T04:25:37.579Z,94.40
2022-10-02T04:27:46.940Z,95.40
2022-10-02T04:32:27.471Z,96.80
2022-10-02T04:34:34.362Z,97.40
2022-10-02T04:36:51.795Z,96.90
2022-10-02T04:39:21.870Z,96.00
2022-10-02T04:41:50.938Z,96.10
2022-10-02T04:44:07.707Z,95.90
2022-10-02T04:46:25.486Z,96.60
2022-10-02T04:49:02.159Z,96.70
2022-10-02T04:51:38.574Z,97.00
2022-10-02T04:53:58.713Z,96.80
2022-10-02T04:56:23.351Z,95.30
2022-10-02T04:58:52.548Z,96.00
2022-10-02T05:01:10.122Z,96.40
2022-10-02T05:03:32.257Z,96.90
2022-10-02T05:05:59.410Z,96.70
2022-10-02T05:08:29.071Z,95.60
2022-10-02T05:10:52.441Z,95.50
2022-10-02T05:13:08.931Z,96.10
2022-10-02T05:15:31.835Z,96.40
2022-10-02T05:17:55.041Z,96.30
2022-10-02T05:20:20.607Z,97.00
2022-10-02T05:22:54.248Z,95.90
2022-10-02T05:25:31.023Z,96.00
2022-10-02T05:28:10.697Z,95.70
2022-10-02T05:30:19.690Z,93.90
2022-10-02T05:32:55.914Z,93.50
2022-10-02T05:35:16.760Z,93.00
2022-10-02T05:37:37.354Z,93.20
2022-10-02T05:39:53.493Z,93.40
2022-10-02T05:42:07.279Z,94.20
2022-10-02T05:44:19.683Z,94.60
2022-10-02T05:46:28.790Z,94.80
2022-10-02T05:48:41.418Z,94.10
2022-10-02T05:50:54.439Z,94.10
2022-10-02T05:53:04.629Z,93.70
2022-10-02T05:55:22.039Z,92.80
2022-10-02T05:57:34.364Z,92.70
2022-10-02T05:59:47.948Z,92.60
2022-10-02T06:01:57.169Z,92.10
2022-10-02T06:04:11.051Z,91.70
2022-10-02T06:06:23.994Z,92.60
2022-10-02T06:08:36.761Z,92.70
2022-10-02T06:10:51.527Z,93.30
2022-10-02T06:13:01.809Z,93.70
2022-10-02T06:15:19.418Z,94.10
2022-10-02T06:17:30.521Z,94.20
2022-10-02T06:19:42.604Z,94.50
2022-10-02T06:21:54.125Z,94.70
2022-10-02T06:24:02.835Z,94.60
2022-10-02T06:26:15.473Z,94.40
2022-10-02T06:28:26.350Z,95.30
2022-10-02T06:30:36.156Z,95.30
2022-10-02T06:32:49.238Z,95.20
2022-10-02T06:34:56.303Z,95.10
2022-10-02T06:37:39.039Z,95.30
2022-10-02T06:40:15.098Z,95.60
2022-10-02T06:42:40.622Z,96.20
2022-10-02T06:44:55.876Z,96.70
2022-10-02T06:47:18.683Z,96.70
2022-10-02T06:49:34.554Z,96.10
2022-10-02T06:51:53.780Z,97.00
2022-10-02T06:54:20.300Z,97.30
2022-10-02T06:56:43.141Z,98.50
2022-10-02T06:59:06.215Z,98.80
2022-10-02T07:01:22.563Z,99.40
2022-10-02T07:04:07.475Z,99.90
2022-10-02T07:06:26.571Z,99.90
2022-10-02T07:08:47.185Z,99.90
2022-10-02T07:11:04.350Z,99.90
2022-10-02T07:13:25.823Z,99.90
2022-10-02T07:15:55.601Z,99.90
2022-10-02T07:18:11.463Z,99.90
2022-10-02T07:20:43.020Z,99.90
2022-10-02T07:23:07.681Z,99.90
2022-10-02T07:25:51.651Z,99.90
2022-10-02T07:28:05.266Z,99.90
2022-10-02T07:30:15.981Z,99.90
2022-10-02T07:32:41.244Z,99.90
2022-10-02T07:35:04.051Z,99.90
2022-10-02T07:37:25.419Z,99.90
2022-10-02T07:39:46.726Z,99.90
2022-10-02T07:42:29.171Z,99.90
2022-10-02T07:44:54.112Z,99.90
2022-10-02T07:47:14.424Z,99.90
2022-10-02T07:49:37.732Z,99.90
2022-10-02T07:51:51.161Z,99.90
2022-10-02T07:54:05.426Z,99.90
2022-10-02T07:56:20.994Z,99.90
2022-10-02T07:58:38.031Z,99.90
2022-10-02T08:00:51.259Z,99.90
2022-10-02T08:03:03.184Z,99.90
2022-10-02T08:05:17.010Z,99.90
2022-10-02T08:07:24.184Z,99.90
2022-10-02T08:09:38.336Z,99.90
2022-10-02T08:11:49.924Z,99.90
2022-10-02T08:14:03.606Z,99.90
2022-10-02T08:16:14.595Z,99.90
2022-10-02T08:18:34.571Z,99.90
2022-10-02T08:20:47.467Z,99.90
2022-10-02T08:22:59.000Z,99.90
2022-10-02T08:25:13.298Z,99.90
2022-10-02T08:27:24.321Z,99.90
2022-10-02T08:29:41.281Z,99.90
2022-10-02T08:31:49.022Z,99.90
2022-10-02T08:33:56.567Z,99.90
2022-10-02T08:36:19.447Z,99.90
2022-10-02T08:38:39.705Z,99.90
2022-10-02T08:41:12.638Z,99.90
2022-10-02T08:44:09.060Z,99.90
2022-10-02T08:46:43.853Z,99.90
2022-10-02T08:49:25.595Z,99.90
2022-10-02T08:52:10.727Z,99.90
2022-10-02T08:54:55.019Z,99.90
2022-10-02T08:57:28.210Z,99.90
2022-10-02T09:00:02.950Z,99.90
2022-10-02T09:02:59.015Z,99.90
2022-10-02T09:05:34.357Z,99.90
2022-10-02T09:08:12.164Z,99.90
2022-10-02T09:11:04.709Z,99.90
2022-10-02T09:13:29.239Z,99.90
2022-10-02T09:15:48.710Z,99.90
2022-10-02T09:18:14.886Z,99.90
2022-10-02T09:20:57.557Z,99.90
2022-10-02T09:23:36.119Z,99.90
2022-10-02T09:25:59.621Z,99.90
2022-10-02T09:28:41.629Z,99.90
2022-10-02T09:31:26.959Z,99.90
2022-10-02T09:34:03.628Z,99.90
2022-10-02T09:36:42.564Z,99.90
2022-10-02T09:39:22.351Z,99.90
2022-10-02T09:42:00.261Z,99.90
2022-10-02T09:44:40.458Z,99.90
2022-10-02T09:47:13.735Z,99.90
2022-10-02T09:50:02.917Z,99.90
2022-10-02T09:52:52.987Z,99.90
2022-10-02T09:55:38.483Z,99.90
2022-10-02T09:58:28.687Z,99.90
2022-10-02T10:01:10.220Z,99.90
2022-10-02T10:03:47.297Z,99.90
2022-10-02T10:06:35.735Z,99.90
2022-10-02T10:09:04.377Z,99.90
2022-10-02T10:11:59.226Z,99.90
2022-10-02T10:14:59.103Z,99.90
2022-10-02T10:17:40.272Z,99.90
2022-10-02T10:20:24.061Z,99.90
2022-10-02T10:23:01.100Z,99.90
2022-10-02T10:25:32.396Z,99.90
2022-10-02T10:28:16.831Z,99.90
2022-10-02T10:30:48.653Z,99.90
2022-10-02T10:33:25.328Z,99.90
2022-10-02T10:36:30.979Z,99.90
2022-10-02T10:38:53.367Z,99.90
2022-10-02T10:41:15.654Z,99.90
2022-10-02T10:43:56.217Z,99.90
2022-10-02T10:46:18.850Z,99.90
2022-10-02T10:48:49.932Z,99.90
2022-10-02T10:51:05.788Z,99.90
2022-10-02T10:53:30.736Z,99.90
2022-10-02T10:55:53.738Z,99.90
2022-10-02T10:58:22.328Z,99.90
2022-10-02T11:00:34.008Z,99.90
2022-10-02T11:02:55.577Z,99.90
2022-10-02T11:05:37.628Z,99.90
2022-10-02T11:08:07.233Z,99.90
2022-10-02T11:10:40.016Z,99.90
2022-10-02T11:13:25.291Z,99.90
2022-10-02T11:16:00.299Z,99.90
2022-10-02T11:18:35.821Z,99.90
2022-10-02T11:21:05.666Z,99.90
2022-10-02T11:23:44.968Z,99.90
2022-10-02T11:26:23.235Z,99.90
2022-10-02T11:29:08.761Z,99.90
2022-10-02T11:31:28.302Z,99.90
2022-10-02T11:34:05.215Z,99.90
2022-10-02T11:36:43.573Z,99.90
2022-10-02T11:39:29.306Z,99.90
2022-10-02T11:41:56.361Z,99.90
2022-10-02T11:44:29.961Z,99.90
2022-10-02T11:47:03.199Z,99.90
2022-10-02T11:49:46.388Z,99.90
2022-10-02T11:52:24.694Z,99.90
2022-10-02T11:54:47.074Z,99.90
2022-10-02T11:57:09.614Z,99.90
2022-10-02T11:59:31.882Z,99.90
2022-10-02T12:01:46.367Z,99.90
2022-10-02T12:04:05.134Z,99.90
2022-10-02T12:06:24.558Z,99.90
2022-10-02T12:08:49.580Z,99.90
2022-10-02T12:11:02.334Z,99.90
2022-10-02T12:13:43.115Z,99.90
2022-10-02T12:15:57.251Z,99.90
2022-10-02T12:18:24.964Z,99.90
2022-10-02T12:21:02.563Z,99.90
2022-10-02T12:23:36.927Z,99.90
2022-10-02T12:26:13.498Z,99.90
2022-10-02T12:28:26.738Z,99.90
2022-10-02T12:30:41.769Z,99.90
2022-10-02T12:33:08.425Z,99.90
2022-10-02T12:35:32.503Z,99.90
2022-10-02T12:37:49.771Z,99.90
2022-10-02T12:40:05.349Z,99.90
2022-10-02T12:42:43.763Z,99.90
2022-10-02T12:45:29.164Z,99.90
2022-10-02T12:48:13.034Z,99.90
2022-10-02T12:50:31.068Z,99.90
2022-10-02T12:53:09.945Z,99.90
2022-10-02T12:55:51.124Z,99.90
2022-10-02T12:58:11.249Z,99.90
2022-10-02T13:00:20.385Z,99.90
2022-10-02T13:03:01.662Z,99.90
2022-10-02T13:05:39.816Z,99.90
2022-10-02T13:08:17.273Z,99.90
2022-10-02T13:10:28.032Z,99.90
2022-10-02T13:12:52.517Z,99.90
2022-10-02T13:15:38.254Z,99.90
2022-10-02T13:17:51.715Z,99.90
2022-10-02T13:20:07.345Z,99.90
2022-10-02T13:22:19.824Z,99.90
2022-10-02T13:24:48.744Z,99.90
2022-10-02T13:27:03.419Z,99.90
2022-10-02T13:29:38.107Z,99.90
2022-10-02T13:32:14.457Z,99.90
2022-10-02T13:34:41.078Z,99.90
2022-10-02T13:37:01.282Z,99.90
2022-10-02T13:39:30.335Z,99.90
2022-10-02T13:41:50.871Z,99.90
2022-10-02T13:44:09.685Z,99.90
2022-10-02T13:46:29.437Z,99.90
2022-10-02T13:48:55.946Z,99.90
2022-10-02T13:51:08.084Z,99.90
2022-10-02T13:53:49.279Z,99.90
2022-10-02T13:56:00.525Z,99.90
2022-10-02T13:58:26.065Z,99.90
2022-10-02T14:00:53.394Z,99.90
2022-10-02T14:03:10.061Z,99.90
2022-10-02T14:05:29.435Z,99.90
2022-10-02T14:07:50.925Z,99.90
2022-10-02T14:10:05.975Z,99.90
2022-10-02T14:12:31.171Z,99.90
2022-10-02T14:14:59.095Z,99.90
2022-10-02T14:17:19.691Z,99.90
2022-10-02T14:19:39.778Z,99.90
2022-10-02T14:21:58.464Z,99.90
2022-10-02T14:24:22.184Z,99.90
2022-10-02T14:26:36.021Z,99.90
2022-10-02T14:29:35.520Z,99.90
2022-10-02T14:32:07.991Z,99.90
2022-10-02T14:35:02.676Z,99.90
2022-10-02T14:37:45.502Z,99.90
2022-10-02T14:39:53.836Z,99.90
2022-10-02T14:42:26.974Z,99.90
2022-10-02T14:44:52.119Z,99.90
2022-10-02T14:47:25.559Z,99.90
2022-10-02T14:50:15.399Z,99.90
2022-10-02T14:52:44.493Z,99.90
2022-10-02T14:55:16.522Z,99.90
2022-10-02T14:57:48.162Z,99.90
2022-10-02T15:00:18.181Z,99.90
2022-10-02T15:02:52.251Z,99.90
2022-10-02T15:05:08.518Z,99.90
2022-10-02T15:07:16.852Z,99.90
2022-10-02T15:09:30.022Z,99.90
2022-10-02T15:12:11.952Z,99.90
2022-10-02T15:14:28.045Z,99.90
2022-10-02T15:17:02.276Z,99.90
2022-10-02T15:19:18.768Z,99.90
2022-10-02T15:21:31.311Z,99.90
2022-10-02T15:23:47.602Z,99.90
2022-10-02T15:26:11.705Z,99.90
2022-10-02T15:28:36.246Z,99.90
2022-10-02T15:30:48.385Z,99.90
2022-10-02T15:32:59.559Z,99.90
2022-10-02T15:35:27.741Z,99.90
2022-10-02T15:37:44.900Z,99.90
2022-10-02T15:40:20.498Z,99.90
2022-10-02T15:42:50.233Z,99.90
2022-10-02T15:45:14.694Z,99.90
2022-10-02T15:47:40.104Z,99.90
2022-10-02T15:50:03.830Z,99.90
2022-10-02T15:52:18.173Z,99.90
2022-10-02T15:54:51.741Z,99.90
2022-10-02T15:57:22.663Z,99.90
2022-10-02T15:59:55.032Z,99.90
2022-10-02T16:02:18.829Z,99.90
2022-10-02T16:04:35.150Z,99.90
2022-10-02T16:06:58.306Z,99.90
2022-10-02T16:09:19.245Z,99.90
2022-10-02T16:11:58.803Z,99.90
2022-10-02T16:14:11.212Z,99.90
2022-10-02T16:16:33.172Z,99.90
2022-10-02T16:18:56.393Z,99.90
2022-10-02T16:21:28.714Z,99.90
2022-10-02T16:23:57.192Z,99.90
2022-10-02T16:26:29.616Z,99.90
2022-10-02T16:28:55.998Z,99.90
2022-10-02T16:31:31.099Z,99.90
2022-10-02T16:33:53.015Z,99.90
2022-10-02T16:36:30.963Z,99.90
2022-10-02T16:38:51.562Z,99.90
2022-10-02T16:41:01.557Z,99.90
2022-10-02T16:43:40.077Z,99.90
2022-10-02T16:46:00.294Z,99.90
2022-10-02T16:48:15.121Z,99.90
2022-10-02T16:50:28.908Z,99.90
2022-10-02T16:52:43.463Z,99.90
2022-10-02T16:54:54.842Z,99.90
2022-10-02T16:57:07.964Z,99.90
2022-10-02T16:59:19.022Z,99.90
2022-10-02T17:01:33.850Z,99.90
2022-10-02T17:03:47.890Z,99.90
2022-10-02T17:05:59.682Z,99.90
2022-10-02T17:08:10.548Z,99.90
2022-10-02T17:10:27.612Z,99.90
2022-10-02T17:12:43.446Z,99.90
2022-10-02T17:14:57.745Z,99.90
2022-10-02T17:17:08.254Z,99.90
2022-10-02T17:19:31.512Z,99.90
2022-10-02T17:21:49.242Z,99.90
2022-10-02T17:24:18.492Z,99.90
2022-10-02T17:26:35.623Z,99.90
2022-10-02T17:28:51.234Z,99.90
2022-10-02T17:31:36.772Z,99.90
2022-10-02T17:33:51.167Z,99.90
2022-10-02T17:36:08.793Z,99.90
2022-10-02T17:38:45.721Z,99.90
2022-10-02T17:41:00.381Z,99.90
2022-10-02T17:43:18.534Z,99.90
2022-10-02T17:45:39.105Z,99.90
2022-10-02T17:48:02.585Z,99.90
2022-10-02T17:50:38.826Z,99.90
2022-10-02T17:53:10.650Z,99.90
2022-10-02T17:55:54.476Z,99.90
2022-10-02T17:58:14.268Z,99.90
2022-10-02T18:00:25.034Z,99.90
2022-10-02T18:03:05.185Z,99.90
2022-10-02T18:05:27.371Z,99.90
2022-10-02T18:07:55.801Z,99.90
2022-10-02T18:10:15.272Z,99.90
2022-10-02T18:12:40.165Z,99.90
2022-10-02T18:15:11.362Z,99.90
2022-10-02T18:17:27.963Z,99.90
2022-10-02T18:19:49.634Z,99.90
2022-10-02T18:22:18.921Z,99.90
2022-10-02T18:24:41.527Z,99.90
2022-10-02T18:27:09.291Z,99.90
2022-10-02T18:29:31.119Z,99.90
2022-10-02T18:31:56.395Z,99.90
2022-10-02T18:34:28.692Z,99.90
2022-10-02T18:36:51.131Z,99.90
2022-10-02T18:39:14.750Z,99.90
2022-10-02T18:41:42.615Z,99.90
2022-10-02T18:44:01.625Z,99.90
2022-10-02T18:46:18.533Z,99.90
2022-10-02T18:48:45.479Z,99.90
2022-10-02T18:51:08.328Z,99.90
2022-10-02T18:53:40.495Z,99.90
2022-10-02T18:56:04.988Z,99.90
2022-10-02T18:58:30.443Z,99.90
2022-10-02T19:01:03.397Z,99.90
2022-10-02T19:03:30.374Z,99.90
2022-10-02T19:05:42.507Z,99.90
2022-10-02T19:07:55.850Z,99.90
2022-10-02T19:10:29.093Z,99.90
2022-10-02T19:12:36.682Z,99.90
2022-10-02T19:14:47.909Z,99.90
2022-10-02T19:17:02.769Z,99.90
2022-10-02T19:19:25.415Z,99.90
2022-10-02T19:21:32.595Z,99.90
2022-10-02T19:23:42.443Z,99.90
2022-10-02T19:25:51.260Z,99.90
2022-10-02T19:28:00.675Z,99.90
2022-10-02T19:30:24.619Z,99.90
2022-10-02T19:32:34.514Z,99.90
2022-10-02T19:34:43.189Z,99.90
2022-10-02T19:36:53.185Z,99.90
2022-10-02T19:39:04.045Z,99.90
2022-10-02T19:41:13.326Z,99.90
2022-10-02T19:43:27.222Z,99.90
2022-10-02T19:45:37.709Z,99.90
2022-10-02T19:47:48.439Z,99.90
2022-10-02T19:49:57.719Z,99.90
2022-10-02T19:52:05.211Z,99.90
2022-10-02T19:54:18.329Z,99.90
2022-10-02T19:56:30.682Z,99.90
2022-10-02T19:58:42.574Z,99.90
2022-10-02T20:00:52.646Z,99.90
2022-10-02T20:03:02.981Z,99.90
2022-10-02T20:05:17.536Z,99.90
2022-10-02T20:07:27.070Z,99.90
2022-10-02T20:09:39.017Z,99.90
2022-10-02T20:11:48.502Z,99.90
2022-10-02T20:14:01.467Z,99.90
2022-10-02T20:16:34.570Z,99.90
2022-10-02T20:18:42.051Z,99.90
2022-10-02T20:20:50.813Z,99.90
2022-10-02T20:23:02.604Z,99.90
2022-10-02T20:25:14.298Z,99.90
2022-10-02T20:27:27.667Z,99.90
2022-10-02T20:29:46.585Z,99.90
2022-10-02T20:32:00.871Z,99.90
2022-10-02T20:34:12.357Z,99.90
2022-10-02T20:36:22.922Z,99.90
2022-10-02T20:38:34.144Z,99.90
2022-10-02T20:40:44.095Z,99.90
2022-10-02T20:42:59.315Z,99.90
2022-10-02T20:45:06.746Z,99.90
2022-10-02T20:47:45.313Z,99.90
2022-10-02T20:50:13.026Z,99.90
2022-10-02T20:52:50.927Z,99.90
2022-10-02T20:55:03.536Z,99.90
2022-10-02T20:58:01.210Z,99.90
2022-10-02T21:00:16.679Z,99.90
2022-10-02T21:02:44.649Z,99.90
2022-10-02T21:05:22.804Z,99.90
2022-10-02T21:07:51.755Z,99.90
2022-10-02T21:10:41.690Z,99.90
2022-10-02T21:13:07.244Z,99.90
2022-10-02T21:15:53.439Z,99.90
2022-10-02T21:18:24.311Z,99.90
2022-10-02T21:21:02.690Z,99.90
2022-10-02T21:23:47.147Z,99.90
2022-10-02T21:26:14.396Z,99.90
2022-10-02T21:28:57.060Z,99.90
2022-10-02T21:31:15.756Z,99.90
2022-10-02T21:33:25.656Z,99.90
2022-10-02T21:35:45.544Z,99.90
2022-10-02T21:38:15.656Z,99.90
2022-10-02T21:40:55.348Z,99.90
2022-10-02T21:43:29.120Z,99.90
2022-10-02T21:46:28.109Z,99.90
2022-10-02T21:49:15.218Z,99.90
2022-10-02T21:52:08.018Z,99.90
2022-10-02T21:54:53.294Z,99.90
2022-10-02T21:57:45.841Z,99.90
2022-10-02T22:00:14.064Z,99.90
2022-10-02T22:03:02.161Z,99.90
2022-10-02T22:05:38.454Z,99.90
2022-10-02T22:07:51.290Z,99.90
2022-10-02T22:10:05.284Z,99.90
2022-10-02T22:12:39.491Z,99.90
2022-10-02T22:14:54.043Z,99.90
2022-10-02T22:17:15.100Z,99.90
2022-10-02T22:19:37.296Z,99.90
2022-10-02T22:22:08.430Z,99.90
2022-10-02T22:24:32.351Z,99.90
2022-10-02T22:27:01.753Z,99.90
2022-10-02T22:29:16.308Z,99.90
2022-10-02T22:31:45.506Z,99.90
2022-10-02T22:34:06.052Z,99.90
2022-10-02T22:36:33.047Z,99.90
2022-10-02T22:38:41.101Z,99.90
2022-10-02T22:40:53.452Z,99.90
2022-10-02T22:43:07.259Z,99.90
2022-10-02T22:45:23.329Z,99.90
2022-10-02T22:47:37.321Z,99.90
2022-10-02T22:49:49.935Z,99.90
2022-10-02T22:52:03.920Z,99.90
2022-10-02T22:54:23.960Z,99.90
2022-10-02T22:56:35.896Z,99.90
2022-10-02T22:58:50.862Z,99.90
2022-10-02T23:01:03.711Z,99.90
2022-10-02T23:03:20.483Z,99.90
2022-10-02T23:17:53.714Z,99.90
2022-10-02T23:20:05.752Z,99.90
2022-10-02T23:22:13.916Z,99.90
2022-10-02T23:24:29.486Z,99.90
2022-10-02T23:26:40.258Z,99.90
2022-10-02T23:28:55.632Z,99.90
2022-10-02T23:31:15.944Z,99.90
2022-10-02T23:33:28.223Z,99.90
2022-10-02T23:35:41.797Z,99.90
2022-10-02T23:37:54.611Z,99.90
2022-10-02T23:40:15.977Z,99.90
2022-10-02T23:42:29.968Z,99.90
2022-10-02T23:44:42.789Z,99.90
2022-10-02T23:47:04.400Z,99.90
2022-10-02T23:49:15.576Z,99.90
2022-10-02T23:51:30.642Z,99.90
2022-10-02T23:54:18.527Z,99.90
2022-10-02T23:56:45.473Z,99.90
2022-10-02T23:59:14.773Z,99.90
